Terminal Aerodrome Forecast
Issued by NWS

Home | Current Version | Previous Version | Text Only | Print | Product List | Glossary On
Versions: 1 2 3 4 5 6 7 8 9 10 11 12 13 14 15 16 17 18 19 20 21 22 23 24 25 26 27 28 29 30 31 32 33 34 35
000
FTUS44 KHGX 181147
TAFIAH
TAF
KIAH 181147Z 1812/1918 VRB05KT 2SM -TSRA BR SCT003 OVC020CB
      TEMPO 1812/1813 1SM +TSRA BR BKN003 OVC015CB
     FM181400 VRB04KT 3SM SHRA BR SCT008 OVC020
     FM181800 12008KT 6SM BR VCTS BKN010 OVC020CB
     FM190400 VRB04KT 2SM BR OVC007
     FM190900 29007KT 4SM BR VCTS BKN007 OVC015CB
     FM191500 25007KT P6SM VCSH SCT015 BKN050=

USA.gov is the U.S. government's official web portal to all federal, state and local government web resources and services.